Accueil
METAR-TAF:

METAR-TAF

Aéroports :

Le Caire, Égypte

Aéroport international du Caire

latitude: 30-08N, longitude: 031-24E, altitude: 64 m

Observation

Le bulletin a été fait il y a 15 minutes, à 05:00 UTC
Vent 3 kt de nord/nord-ouest
Température 25°C
Humidité 79%
Pression 1010 hPa
Visibilité: 6000 m

METAR: HECA 260500Z 33003KT 6000 NSC 25/21 Q1010 NOSIG

Heure: 07:15 (05:15 UTC)


TAF: absent

Observations et prévisions météorologiques de plus de 4000 aéroports (messages METAR et TAF).

Les stations disponibles sont représentées par des disques jaunes et rouges sur la carte.

Passer la souris dessus pour voir le nom de la station.

Cliquer dessus pour voir les observations et prévisions météorologiques.

Pour changer de carte: cliquez sur les boutons verts avec une croix noire pour zoomer, sur le bouton vert avec un tiret pour effectuer un zoom arrière, ou sur les flèches vertes pour les cartes adjacentes.


METAR-TAF: